createdAt,value
2019-03-15T00:01:38.324Z,92.30
2019-03-15T00:04:06.808Z,92.10
2019-03-15T00:06:35.382Z,92.10
2019-03-15T00:09:07.323Z,91.90
2019-03-15T00:11:35.792Z,92.10
2019-03-15T00:14:04.355Z,92.00
2019-03-15T00:16:32.848Z,91.90
2019-03-15T00:19:01.388Z,92.10
2019-03-15T00:21:30.761Z,91.70
2019-03-15T00:23:59.491Z,91.70
2019-03-15T00:26:28.015Z,91.70
2019-03-15T00:28:56.586Z,92.00
2019-03-15T00:31:25.219Z,92.20
2019-03-15T00:33:53.744Z,92.50
2019-03-15T00:36:22.250Z,92.80
2019-03-15T00:38:50.924Z,93.10
2019-03-15T00:41:19.561Z,93.20
2019-03-15T00:43:49.542Z,93.20
2019-03-15T00:46:18.402Z,93.40
2019-03-15T00:48:47.056Z,93.60
2019-03-15T00:51:15.712Z,93.80
2019-03-15T00:53:44.195Z,93.70
2019-03-15T00:56:12.824Z,94.00
2019-03-15T00:58:41.400Z,94.10
2019-03-15T01:01:10.199Z,94.10
2019-03-15T01:03:38.844Z,93.60
2019-03-15T01:06:07.427Z,93.90
2019-03-15T01:08:35.949Z,93.80
2019-03-15T01:11:04.578Z,94.00
2019-03-15T01:13:33.173Z,93.80
2019-03-15T01:16:01.758Z,93.70
2019-03-15T01:18:30.285Z,93.80
2019-03-15T01:20:58.847Z,93.80
2019-03-15T01:23:27.712Z,94.00
2019-03-15T01:25:56.327Z,93.70
2019-03-15T01:28:24.821Z,93.70
2019-03-15T01:30:53.732Z,94.00
2019-03-15T01:33:22.259Z,93.80
2019-03-15T01:35:50.836Z,94.10
2019-03-15T01:38:19.388Z,94.10
2019-03-15T01:40:48.934Z,93.70
2019-03-15T01:43:16.821Z,93.50
2019-03-15T01:45:45.340Z,93.70
2019-03-15T01:48:13.869Z,94.00
2019-03-15T01:50:42.502Z,94.10
2019-03-15T01:53:10.956Z,94.30
2019-03-15T01:55:39.510Z,94.20
2019-03-15T01:58:08.076Z,94.20
2019-03-15T02:00:36.768Z,94.50
2019-03-15T02:03:05.221Z,94.80
2019-03-15T02:05:33.800Z,94.20
2019-03-15T02:08:02.311Z,94.40
2019-03-15T02:10:50.227Z,94.40
2019-03-15T02:13:18.679Z,94.60
2019-03-15T02:15:47.243Z,94.60
2019-03-15T02:18:15.796Z,94.60
2019-03-15T02:20:44.453Z,94.80
2019-03-15T02:23:12.983Z,94.50
2019-03-15T02:25:41.724Z,94.40
2019-03-15T02:28:10.270Z,94.50
2019-03-15T02:30:38.845Z,94.50
2019-03-15T02:33:07.400Z,94.30
2019-03-15T02:35:35.933Z,94.70
2019-03-15T02:38:04.531Z,94.30
2019-03-15T02:40:33.199Z,94.40
2019-03-15T02:43:01.739Z,94.30
2019-03-15T02:45:30.314Z,94.30
2019-03-15T02:47:58.864Z,94.70
2019-03-15T02:50:29.118Z,94.70
2019-03-15T02:52:57.602Z,94.80
2019-03-15T02:55:26.174Z,94.80
2019-03-15T02:57:54.713Z,95.10
2019-03-15T03:00:23.242Z,95.20
2019-03-15T03:02:51.901Z,95.40
2019-03-15T03:05:20.361Z,95.50
2019-03-15T03:07:48.816Z,95.60
2019-03-15T03:10:17.311Z,95.70
2019-03-15T03:12:45.840Z,95.80
2019-03-15T03:15:14.302Z,96.20
2019-03-15T03:17:42.868Z,96.10
2019-03-15T03:20:11.392Z,96.60
2019-03-15T03:22:39.846Z,96.80
2019-03-15T03:25:08.481Z,97.10
2019-03-15T03:27:37.153Z,96.90
2019-03-15T03:30:10.492Z,97.30
2019-03-15T03:32:40.064Z,97.20
2019-03-15T03:35:10.032Z,97.60
2019-03-15T03:37:39.318Z,97.60
2019-03-15T03:40:08.647Z,97.60
2019-03-15T03:42:37.202Z,97.80
2019-03-15T03:45:07.579Z,98.30
2019-03-15T03:47:36.146Z,98.20
2019-03-15T03:50:09.501Z,98.00
2019-03-15T03:52:41.489Z,97.90
2019-03-15T03:55:08.448Z,98.00
2019-03-15T03:57:36.979Z,98.20
2019-03-15T04:00:14.464Z,98.10
2019-03-15T04:02:43.059Z,98.10
2019-03-15T04:05:11.585Z,98.20
2019-03-15T04:07:40.076Z,98.10
2019-03-15T04:10:10.274Z,98.10
2019-03-15T04:12:38.723Z,98.20
2019-03-15T04:15:09.462Z,98.30
2019-03-15T04:17:37.995Z,98.20
2019-03-15T04:20:11.768Z,98.40
2019-03-15T04:22:40.320Z,98.20
2019-03-15T04:25:10.324Z,98.20
2019-03-15T04:27:38.821Z,98.20
2019-03-15T04:30:11.551Z,98.30
2019-03-15T04:32:40.020Z,98.40
2019-03-15T04:35:08.640Z,98.10
2019-03-15T04:37:37.200Z,98.60
2019-03-15T04:40:10.828Z,98.60
2019-03-15T04:42:39.285Z,98.70
2019-03-15T04:45:08.524Z,98.80
2019-03-15T04:47:37.059Z,98.70
2019-03-15T04:50:06.948Z,98.80
2019-03-15T04:52:35.510Z,98.90
2019-03-15T04:55:05.203Z,99.00
2019-03-15T04:57:32.885Z,99.20
2019-03-15T05:00:01.460Z,99.00
2019-03-15T05:02:30.001Z,99.10
2019-03-15T05:05:00.313Z,99.10
2019-03-15T05:07:28.859Z,99.00
2019-03-15T05:09:57.331Z,98.90
2019-03-15T05:12:25.962Z,99.10
2019-03-15T05:14:54.492Z,99.20
2019-03-15T05:17:23.023Z,99.40
2019-03-15T05:19:51.506Z,99.20
2019-03-15T05:22:20.113Z,99.30
2019-03-15T05:24:48.585Z,99.20
2019-03-15T05:27:17.119Z,98.90
2019-03-15T05:29:45.636Z,98.90
2019-03-15T05:32:14.406Z,98.20
2019-03-15T05:34:42.947Z,98.30
2019-03-15T05:37:11.519Z,98.40
2019-03-15T05:39:39.989Z,98.50
2019-03-15T05:42:08.520Z,98.50
2019-03-15T05:44:37.096Z,98.20
2019-03-15T05:47:05.633Z,97.80
2019-03-15T05:49:34.087Z,97.80
2019-03-15T05:52:02.600Z,98.10
2019-03-15T05:54:31.123Z,97.90
2019-03-15T05:56:59.663Z,97.80
2019-03-15T05:59:28.213Z,97.80
2019-03-15T06:01:56.743Z,97.70
2019-03-15T06:04:25.207Z,97.60
2019-03-15T06:06:53.779Z,97.60
2019-03-15T06:09:22.227Z,97.30
2019-03-15T06:11:50.775Z,97.30
2019-03-15T06:14:19.284Z,97.30
2019-03-15T06:16:47.756Z,97.40
2019-03-15T06:19:16.328Z,97.80
2019-03-15T06:21:44.990Z,97.20
2019-03-15T06:24:13.608Z,97.10
2019-03-15T06:26:42.130Z,97.20
2019-03-15T06:29:10.649Z,97.60
2019-03-15T06:31:39.107Z,96.90
2019-03-15T06:34:07.948Z,96.30
2019-03-15T06:36:36.445Z,96.80
2019-03-15T06:39:06.728Z,96.00
2019-03-15T06:41:35.202Z,96.00
2019-03-15T06:44:03.771Z,95.70
2019-03-15T06:46:49.704Z,96.20
2019-03-15T06:49:18.260Z,95.90
2019-03-15T06:51:48.371Z,96.00
2019-03-15T06:54:17.373Z,96.20
2019-03-15T06:56:45.910Z,96.40
2019-03-15T06:59:14.440Z,96.10
2019-03-15T07:01:43.174Z,95.80
2019-03-15T07:04:12.273Z,95.60
2019-03-15T07:06:40.890Z,95.40
2019-03-15T07:09:09.569Z,95.60
2019-03-15T07:11:38.124Z,95.20
2019-03-15T07:14:08.446Z,95.20
2019-03-15T07:16:38.352Z,94.60
2019-03-15T07:19:07.141Z,94.60
2019-03-15T07:21:36.995Z,94.40
2019-03-15T07:24:05.771Z,93.30
2019-03-15T07:26:34.485Z,94.00
2019-03-15T07:29:03.044Z,93.00
2019-03-15T07:31:31.684Z,93.00
2019-03-15T07:34:00.260Z,92.80
2019-03-15T07:36:33.052Z,92.20
2019-03-15T07:39:01.570Z,92.90
2019-03-15T07:41:31.951Z,91.70
2019-03-15T07:44:00.628Z,92.60
2019-03-15T07:46:29.235Z,92.00
2019-03-15T07:48:57.773Z,91.60
2019-03-15T07:51:26.504Z,91.60
2019-03-15T07:53:55.032Z,91.30
2019-03-15T07:56:23.593Z,91.50
2019-03-15T07:58:52.072Z,90.10
2019-03-15T08:01:20.616Z,90.70
2019-03-15T08:03:49.155Z,91.50
2019-03-15T08:06:17.615Z,91.00
2019-03-15T08:08:46.263Z,90.00
2019-03-15T08:11:14.908Z,90.30
2019-03-15T08:13:43.372Z,90.30
2019-03-15T08:16:11.900Z,90.50
2019-03-15T08:18:40.439Z,90.20
2019-03-15T08:21:08.963Z,89.40
2019-03-15T08:23:37.424Z,88.40
2019-03-15T08:26:05.930Z,86.90
2019-03-15T08:28:34.519Z,87.30
2019-03-15T08:31:03.026Z,86.90
2019-03-15T08:33:31.548Z,87.20
2019-03-15T08:36:00.010Z,87.60
2019-03-15T08:38:28.976Z,86.30
2019-03-15T08:40:57.639Z,86.70
2019-03-15T08:43:26.154Z,87.40
2019-03-15T08:45:54.684Z,85.20
2019-03-15T08:48:23.279Z,84.50
2019-03-15T08:50:52.021Z,83.40
2019-03-15T08:53:20.702Z,84.40
2019-03-15T08:55:49.211Z,85.10
2019-03-15T08:58:21.822Z,85.20
2019-03-15T09:00:47.975Z,85.80
2019-03-15T09:03:27.237Z,84.90
2019-03-15T09:05:46.659Z,85.40
2019-03-15T09:08:15.189Z,85.00
2019-03-15T09:10:43.808Z,84.70
2019-03-15T09:13:12.341Z,85.20
2019-03-15T09:15:40.881Z,83.60
2019-03-15T09:18:09.459Z,84.70
2019-03-15T09:20:37.987Z,85.00
2019-03-15T09:23:06.533Z,86.60
2019-03-15T09:25:35.468Z,85.50
2019-03-15T09:28:03.989Z,85.80
2019-03-15T09:30:32.577Z,87.60
2019-03-15T09:33:03.111Z,83.70
2019-03-15T09:35:31.392Z,80.90
2019-03-15T09:37:59.916Z,82.40
2019-03-15T09:40:28.597Z,80.70
2019-03-15T09:43:00.047Z,81.60
2019-03-15T09:45:28.781Z,80.60
2019-03-15T09:47:57.511Z,81.00
2019-03-15T09:50:36.175Z,80.10
2019-03-15T09:52:56.405Z,80.80
2019-03-15T09:55:32.904Z,81.80
2019-03-15T09:57:55.181Z,81.60
2019-03-15T10:00:23.667Z,83.00
2019-03-15T10:02:52.171Z,85.40
2019-03-15T10:05:20.710Z,88.30
2019-03-15T10:07:49.274Z,88.70
2019-03-15T10:10:18.875Z,87.50
2019-03-15T10:12:48.067Z,86.80
2019-03-15T10:15:17.354Z,87.10
2019-03-15T10:17:46.359Z,86.10
2019-03-15T10:20:15.718Z,87.10
2019-03-15T10:22:44.360Z,86.80
2019-03-15T10:25:14.120Z,85.30
2019-03-15T10:27:42.696Z,84.20
2019-03-15T10:30:15.641Z,83.10
2019-03-15T10:32:44.287Z,82.00
2019-03-15T10:35:12.824Z,82.10
2019-03-15T10:37:41.424Z,82.90
2019-03-15T10:40:18.707Z,84.30
2019-03-15T10:42:47.412Z,84.10
2019-03-15T10:45:16.051Z,81.80
2019-03-15T10:47:44.559Z,81.90
2019-03-15T10:50:14.732Z,81.80
2019-03-15T10:52:43.183Z,81.80
2019-03-15T10:55:12.820Z,81.90
2019-03-15T10:57:41.381Z,80.50
2019-03-15T11:00:20.047Z,80.80
2019-03-15T11:02:48.904Z,78.00
2019-03-15T11:05:19.807Z,77.00
2019-03-15T11:07:48.426Z,75.20
2019-03-15T11:10:16.928Z,76.90
2019-03-15T11:12:45.593Z,75.40
2019-03-15T11:15:16.076Z,73.70
2019-03-15T11:17:44.610Z,72.90
2019-03-15T11:20:13.684Z,74.40
2019-03-15T11:22:42.442Z,72.90
2019-03-15T11:25:12.065Z,73.00
2019-03-15T11:27:42.307Z,73.10
2019-03-15T11:30:12.545Z,73.30
2019-03-15T11:32:41.281Z,74.20
2019-03-15T11:35:10.751Z,74.10
2019-03-15T11:37:39.483Z,74.30
2019-03-15T11:40:13.690Z,73.20
2019-03-15T11:42:41.011Z,72.70
2019-03-15T11:45:11.090Z,71.40
2019-03-15T11:47:50.759Z,70.70
2019-03-15T11:50:18.208Z,71.20
2019-03-15T11:52:46.899Z,70.40
2019-03-15T11:55:15.544Z,70.00
2019-03-15T11:57:44.264Z,69.50
2019-03-15T12:00:17.598Z,69.30
2019-03-15T12:02:46.254Z,71.30
2019-03-15T12:05:15.441Z,72.50
2019-03-15T12:07:44.119Z,72.50
2019-03-15T12:10:14.658Z,72.70
2019-03-15T12:12:43.299Z,71.30
2019-03-15T12:15:13.160Z,71.20
2019-03-15T12:17:41.843Z,70.60
2019-03-15T12:20:11.728Z,70.80
2019-03-15T12:22:40.255Z,71.50
2019-03-15T12:25:09.960Z,69.40
2019-03-15T12:27:37.714Z,69.60
2019-03-15T12:30:08.973Z,70.60
2019-03-15T12:32:37.490Z,70.30
2019-03-15T12:35:10.969Z,68.40
2019-03-15T12:37:39.525Z,68.40
2019-03-15T12:40:13.340Z,68.90
2019-03-15T12:42:41.912Z,68.30
2019-03-15T12:45:15.317Z,68.70
2019-03-15T12:47:44.663Z,67.90
2019-03-15T12:50:14.352Z,70.20
2019-03-15T12:52:47.543Z,73.00
2019-03-15T12:55:13.448Z,72.70
2019-03-15T12:57:41.476Z,72.80
2019-03-15T13:00:14.396Z,71.90
2019-03-15T13:02:42.976Z,71.60
2019-03-15T13:05:11.788Z,72.20
2019-03-15T13:07:40.292Z,71.70
2019-03-15T13:10:12.008Z,71.10
2019-03-15T13:12:40.692Z,71.40
2019-03-15T13:15:16.273Z,71.40
2019-03-15T13:17:45.033Z,70.00
2019-03-15T13:20:19.142Z,70.20
2019-03-15T13:22:47.732Z,69.80
2019-03-15T13:25:16.219Z,68.80
2019-03-15T13:27:44.787Z,68.20
2019-03-15T13:30:14.352Z,68.10
2019-03-15T13:32:42.977Z,69.00
2019-03-15T13:35:13.716Z,67.50
2019-03-15T13:37:43.138Z,65.00
2019-03-15T13:40:15.727Z,65.80
2019-03-15T13:42:44.284Z,65.10
2019-03-15T13:45:14.079Z,67.30
2019-03-15T13:47:42.699Z,66.90
2019-03-15T13:50:14.084Z,67.30
2019-03-15T13:52:42.633Z,67.00
2019-03-15T13:55:11.266Z,68.00
2019-03-15T13:57:39.794Z,67.80
2019-03-15T14:00:14.332Z,68.70
2019-03-15T14:02:42.909Z,67.50
2019-03-15T14:05:11.507Z,67.40
2019-03-15T14:07:39.963Z,67.00
2019-03-15T14:10:13.757Z,66.70
2019-03-15T14:12:42.399Z,66.10
2019-03-15T14:15:12.959Z,65.90
2019-03-15T14:17:41.466Z,65.40
2019-03-15T14:20:11.469Z,65.60
2019-03-15T14:22:39.988Z,65.10
2019-03-15T14:25:11.493Z,62.10
2019-03-15T14:27:40.264Z,61.10
2019-03-15T14:30:11.637Z,60.60
2019-03-15T14:32:40.206Z,61.70
2019-03-15T14:35:09.884Z,61.40
2019-03-15T14:37:37.721Z,62.30
2019-03-15T14:40:13.475Z,63.40
2019-03-15T14:42:42.112Z,61.90
2019-03-15T14:45:14.330Z,61.40
2019-03-15T14:47:42.911Z,61.20
2019-03-15T14:50:12.708Z,58.30
2019-03-15T14:52:41.303Z,57.30
2019-03-15T14:55:14.748Z,58.90
2019-03-15T14:57:51.796Z,59.80
2019-03-15T15:00:15.560Z,61.10
2019-03-15T15:02:44.066Z,61.70
2019-03-15T15:05:12.861Z,62.50
2019-03-15T15:07:41.568Z,62.70
2019-03-15T15:10:15.514Z,62.50
2019-03-15T15:12:44.115Z,62.00
2019-03-15T15:15:14.188Z,59.10
2019-03-15T15:17:42.974Z,57.60
2019-03-15T15:20:12.459Z,57.90
2019-03-15T15:22:41.163Z,58.70
2019-03-15T15:25:13.953Z,58.70
2019-03-15T15:27:42.482Z,58.50
2019-03-15T15:30:15.699Z,57.90
2019-03-15T15:32:44.286Z,59.40
2019-03-15T15:35:13.742Z,58.60
2019-03-15T15:37:42.350Z,58.60
2019-03-15T15:40:16.242Z,60.30
2019-03-15T15:42:44.845Z,59.90
2019-03-15T15:45:14.130Z,61.40
2019-03-15T15:47:42.624Z,61.10
2019-03-15T15:50:13.197Z,61.50
2019-03-15T15:52:41.727Z,62.20
2019-03-15T15:55:11.889Z,61.60
2019-03-15T15:57:40.406Z,60.90
2019-03-15T16:00:18.731Z,60.30
2019-03-15T16:02:47.328Z,60.40
2019-03-15T16:05:15.853Z,61.10
2019-03-15T16:07:44.443Z,60.90
2019-03-15T16:10:17.152Z,61.40
2019-03-15T16:12:44.231Z,62.90
2019-03-15T16:15:14.259Z,63.70
2019-03-15T16:17:45.211Z,64.20
2019-03-15T16:20:19.151Z,66.10
2019-03-15T16:22:47.677Z,65.80
2019-03-15T16:25:16.134Z,66.40
2019-03-15T16:27:44.627Z,66.70
2019-03-15T16:30:15.200Z,67.10
2019-03-15T16:32:43.725Z,67.50
2019-03-15T16:35:13.250Z,67.40
2019-03-15T16:37:41.852Z,67.50
2019-03-15T16:40:12.787Z,68.40
2019-03-15T16:42:41.355Z,68.40
2019-03-15T16:45:18.481Z,69.00
2019-03-15T16:47:47.057Z,69.40
2019-03-15T16:50:15.629Z,70.20
2019-03-15T16:52:44.151Z,70.00
2019-03-15T16:55:13.259Z,70.60
2019-03-15T16:57:42.255Z,70.20
2019-03-15T17:00:15.702Z,70.50
2019-03-15T17:02:44.211Z,70.60
2019-03-15T17:05:13.643Z,70.80
2019-03-15T17:07:45.576Z,71.90
2019-03-15T17:10:21.010Z,71.60
2019-03-15T17:12:49.625Z,71.70
2019-03-15T17:15:25.970Z,71.80
2019-03-15T17:17:54.514Z,71.90
2019-03-15T17:20:23.119Z,71.90
2019-03-15T17:22:51.681Z,72.30
2019-03-15T17:25:20.214Z,72.10
2019-03-15T17:27:48.747Z,72.10
2019-03-15T17:30:17.798Z,72.50
2019-03-15T17:32:46.378Z,72.50
2019-03-15T17:35:16.131Z,72.40
2019-03-15T17:37:44.727Z,72.80
2019-03-15T17:40:18.120Z,72.80
2019-03-15T17:42:46.668Z,73.30
2019-03-15T17:45:15.299Z,73.10
2019-03-15T17:47:43.896Z,73.70
2019-03-15T17:50:15.139Z,74.00
2019-03-15T17:52:43.831Z,74.30
2019-03-15T17:55:12.629Z,74.50
2019-03-15T17:57:41.090Z,74.70
2019-03-15T18:00:16.715Z,74.70
2019-03-15T18:02:45.311Z,75.90
2019-03-15T18:05:14.433Z,75.70
2019-03-15T18:07:42.995Z,75.90
2019-03-15T18:10:11.588Z,76.30
2019-03-15T18:12:40.051Z,76.60
2019-03-15T18:15:10.264Z,76.60
2019-03-15T18:17:38.727Z,76.90
2019-03-15T18:20:08.723Z,77.40
2019-03-15T18:22:37.384Z,77.50
2019-03-15T18:25:07.685Z,77.50
2019-03-15T18:27:38.983Z,77.20
2019-03-15T18:30:20.372Z,77.10
2019-03-15T18:32:48.948Z,76.80
2019-03-15T18:35:17.501Z,77.10
2019-03-15T18:37:46.219Z,77.00
2019-03-15T18:40:16.621Z,76.30
2019-03-15T18:42:48.573Z,76.80
2019-03-15T18:45:20.259Z,76.80
2019-03-15T18:47:48.864Z,77.50
2019-03-15T18:50:25.509Z,78.20
2019-03-15T18:52:54.224Z,79.70
2019-03-15T18:55:22.839Z,79.40
2019-03-15T18:57:52.995Z,79.00
2019-03-15T19:00:23.044Z,79.40
2019-03-15T19:02:59.700Z,79.50
2019-03-15T19:05:28.569Z,79.00
2019-03-15T19:07:58.843Z,79.30
2019-03-15T19:10:27.380Z,79.70
2019-03-15T19:12:56.166Z,81.00
2019-03-15T19:15:24.801Z,83.30
2019-03-15T19:17:55.870Z,84.50
2019-03-15T19:20:24.664Z,85.00
2019-03-15T19:22:53.239Z,85.40
2019-03-15T19:25:22.046Z,85.50
2019-03-15T19:27:50.672Z,85.20
2019-03-15T19:30:19.617Z,85.50
2019-03-15T19:32:48.398Z,85.40
2019-03-15T19:35:17.100Z,85.70
2019-03-15T19:37:45.667Z,85.40
2019-03-15T19:40:15.736Z,85.40
2019-03-15T19:42:45.531Z,85.70
2019-03-15T19:45:15.617Z,86.00
2019-03-15T19:47:43.436Z,86.10
2019-03-15T19:50:19.394Z,86.10
2019-03-15T19:52:48.328Z,86.30
2019-03-15T19:55:17.404Z,86.40
2019-03-15T19:57:46.115Z,86.60
2019-03-15T20:00:16.972Z,86.90
2019-03-15T20:02:45.559Z,87.30
2019-03-15T20:05:14.811Z,87.60
2019-03-15T20:07:47.368Z,87.70
2019-03-15T20:10:17.351Z,88.20
2019-03-15T20:12:45.364Z,88.20
2019-03-15T20:15:17.676Z,88.90
2019-03-15T20:17:46.158Z,89.00
2019-03-15T20:20:16.894Z,89.40
2019-03-15T20:22:45.535Z,89.50
2019-03-15T20:25:15.972Z,89.80
2019-03-15T20:27:44.587Z,89.90
2019-03-15T20:30:23.137Z,90.10
2019-03-15T20:32:50.714Z,90.20
2019-03-15T20:35:19.281Z,90.40
2019-03-15T20:37:48.243Z,90.40
2019-03-15T20:40:16.960Z,90.50
2019-03-15T20:42:45.813Z,90.70
2019-03-15T20:45:24.793Z,90.50
2019-03-15T20:47:56.305Z,90.70
2019-03-15T20:50:29.274Z,90.70
2019-03-15T20:53:08.640Z,90.90
2019-03-15T20:55:29.742Z,90.80
2019-03-15T20:58:01.176Z,90.90
2019-03-15T21:00:35.878Z,91.30
2019-03-15T21:03:01.468Z,91.00
2019-03-15T21:05:32.093Z,91.00
2019-03-15T21:08:00.374Z,91.00
2019-03-15T21:10:28.988Z,91.00
2019-03-15T21:12:57.627Z,91.20
2019-03-15T21:15:26.226Z,91.40
2019-03-15T21:17:54.744Z,91.40
2019-03-15T21:20:23.593Z,91.60
2019-03-15T21:22:52.135Z,91.90
2019-03-15T21:25:20.808Z,92.20
2019-03-15T21:27:54.623Z,92.90
2019-03-15T21:30:27.233Z,93.80
2019-03-15T21:32:55.756Z,94.20
2019-03-15T21:35:24.388Z,94.90
2019-03-15T21:37:53.001Z,95.00
2019-03-15T21:40:22.523Z,95.40
2019-03-15T21:42:51.209Z,96.00
2019-03-15T21:45:19.914Z,96.80
2019-03-15T21:47:48.455Z,96.90
2019-03-15T21:50:23.497Z,97.20
2019-03-15T21:52:52.075Z,97.20
2019-03-15T21:55:20.604Z,97.20
2019-03-15T21:57:49.160Z,97.50
2019-03-15T22:00:18.839Z,97.60
2019-03-15T22:02:47.380Z,97.90
2019-03-15T22:05:15.865Z,98.00
2019-03-15T22:07:47.044Z,97.90
2019-03-15T22:10:16.848Z,98.10
2019-03-15T22:12:45.491Z,98.30
2019-03-15T22:15:14.962Z,98.50
2019-03-15T22:17:43.533Z,98.40
2019-03-15T22:20:13.384Z,98.50
2019-03-15T22:22:41.928Z,98.50
2019-03-15T22:25:10.631Z,98.60
2019-03-15T22:27:39.191Z,98.60
2019-03-15T22:30:10.817Z,98.70
2019-03-15T22:32:39.339Z,98.70
2019-03-15T22:35:08.645Z,98.70
2019-03-15T22:37:37.278Z,99.00
2019-03-15T22:40:08.032Z,99.10
2019-03-15T22:42:36.599Z,99.00
2019-03-15T22:45:10.021Z,99.50
2019-03-15T22:47:38.611Z,99.50
2019-03-15T22:50:09.560Z,99.80
2019-03-15T22:52:38.192Z,99.50
2019-03-15T22:55:08.935Z,99.40
2019-03-15T22:57:40.492Z,99.00
2019-03-15T23:00:14.965Z,98.50
2019-03-15T23:02:43.480Z,96.60
2019-03-15T23:05:12.095Z,95.60
2019-03-15T23:07:40.692Z,95.40
2019-03-15T23:10:10.423Z,95.90
2019-03-15T23:12:38.297Z,96.00
2019-03-15T23:15:11.441Z,94.60
2019-03-15T23:17:40.199Z,94.40
2019-03-15T23:20:10.490Z,93.10
2019-03-15T23:22:39.087Z,92.80
2019-03-15T23:25:08.288Z,92.20
2019-03-15T23:27:36.827Z,92.70
2019-03-15T23:30:08.399Z,92.20
2019-03-15T23:32:42.659Z,92.10
2019-03-15T23:35:11.267Z,90.90
2019-03-15T23:37:39.868Z,91.30
2019-03-15T23:40:10.979Z,91.40
2019-03-15T23:42:39.643Z,90.60
2019-03-15T23:45:10.291Z,89.90
2019-03-15T23:47:39.021Z,89.40
2019-03-15T23:50:15.014Z,88.80
2019-03-15T23:52:44.345Z,89.60
2019-03-15T23:55:12.940Z,89.10
2019-03-15T23:57:41.471Z,87.30
